Data for 02/14/2015

Time Sea-Level Adjusted Pressure Absolute Pressure Temperature Relative Humidity Dew Point   
(mb) (inHg) (mb) (inHg) (C) (F) (%) (C) (F)
00:05 1022 30.18 851 25.13 4.4 40 51 -4.9 23.2
00:10 1022 30.18 851 25.13 4.9 40.8 48 -5.2 22.6
00:15 1022 30.18 851 25.13 5.6 42.1 44 -5.6 21.8
00:20 1022 30.18 851 25.13 6.5 43.6 42 -5.4 22.3
00:25 1022 30.18 851 25.13 6.6 43.9 43 -4.9 23.1
00:30 1022 30.18 851 25.13 6.3 43.4 43 -5.3 22.5
00:35 1022 30.18 851 25.13 6.1 43 45 -5 22.9
00:40 1022 30.18 851 25.13 5.8 42.5 45 -5.1 22.7
00:45 1022 30.18 851 25.13 5.8 42.5 46 -4.9 23.2
00:50 1022 30.18 851 25.13 5.7 42.2 47 -4.9 23.3
00:55 1022 30.18 851 25.13 5.4 41.8 47 -5 23
01:00 1022 30.18 851 25.13 5.5 42 47 -5 23
01:05 1022 30.18 851 25.13 5.8 42.4 47 -4.7 23.5
01:10 1022 30.18 851 25.13 5.7 42.2 47 -4.8 23.4
01:15 1022 30.18 851 25.13 5.6 42.1 47 -4.7 23.5
01:20 1022 30.18 851 25.13 5.3 41.6 48 -4.8 23.3
01:25 1022 30.18 851 25.13 5.6 42.1 44 -5.8 21.6
01:30 1022 30.18 851 25.13 6.2 43.1 42 -5.8 21.6
01:35 1022 30.18 851 25.13 6.2 43.2 40 -6.4 20.5
01:40 1022 30.18 851 25.13 6.6 43.9 41 -5.9 21.5
01:45 1022 30.18 851 25.13 6 42.9 46 -4.7 23.6
01:50 1021 30.15 851 25.13 5.7 42.2 42 -6.3 20.7
01:55 1021 30.15 851 25.13 6.2 43.2 42 -5.8 21.6
02:00 1021 30.15 851 25.13 6 42.8 41 -6.2 20.8
02:05 1021 30.15 850 25.1 5.9 42.7 42 -5.9 21.3
02:10 1021 30.15 850 25.1 6 42.8 43 -5.8 21.6
02:15 1021 30.15 850 25.1 5.9 42.6 42 -5.9 21.3
02:20 1021 30.15 850 25.1 5.9 42.5 43 -5.9 21.4
02:25 1021 30.15 850 25.1 6 42.8 41 -6.2 20.8
02:30 1021 30.15 850 25.1 6.5 43.7 39 -6.5 20.4
02:35 1021 30.15 850 25.1 6.6 43.9 41 -5.8 21.5
02:40 1021 30.15 850 25.1 6.4 43.5 41 -5.9 21.4
02:45 1021 30.15 850 25.1 6.1 43 43 -5.5 22
02:50 1021 30.15 850 25.1 5.8 42.4 44 -5.4 22.3
02:55 1021 30.15 850 25.1 5.6 42 44 -5.6 21.9
03:00 1021 30.15 850 25.1 5.4 41.7 45 -5.7 21.8
03:05 1021 30.15 850 25.1 5.4 41.6 43 -6.3 20.7
03:10 1021 30.15 850 25.1 5.3 41.6 42 -6.6 20.2
03:15 1021 30.15 850 25.1 5.6 42 40 -6.9 19.6
03:20 1021 30.15 850 25.1 5.9 42.7 39 -6.9 19.5
03:25 1021 30.15 850 25.1 6.3 43.3 38 -7 19.5
03:30 1021 30.15 850 25.1 6.2 43.1 39 -6.8 19.7
03:35 1021 30.15 850 25.1 5.8 42.4 39 -7.1 19.2
03:40 1021 30.15 850 25.1 6.1 42.9 39 -7 19.5
03:45 1021 30.15 850 25.1 6 42.8 40 -6.5 20.2
03:50 1021 30.15 850 25.1 5.6 42 42 -6.3 20.6
03:55 1021 30.15 850 25.1 5.8 42.4 41 -6.4 20.6
04:00 1021 30.15 850 25.1 5.7 42.3 42 -6.3 20.7
04:05 1020 30.12 850 25.1 5.7 42.3 42 -6.1 21
04:10 1020 30.12 850 25.1 5.5 41.9 43 -6.2 20.9
04:15 1020 30.12 850 25.1 5.5 41.9 43 -6.1 21
04:20 1020 30.12 850 25.1 5.4 41.8 43 -6.1 21.1
04:25 1020 30.12 850 25.1 5.3 41.5 43 -6.3 20.6
04:30 1020 30.12 850 25.1 5.5 41.9 40 -7.1 19.2
04:35 1020 30.12 850 25.1 5.8 42.5 40 -6.6 20.1
04:40 1020 30.12 849 25.07 5.4 41.7 43 -6.3 20.7
04:45 1020 30.12 849 25.07 4.9 40.9 45 -5.9 21.4
04:50 1020 30.12 849 25.07 4.3 39.8 48 -5.7 21.7
04:55 1020 30.12 849 25.07 4 39.2 48 -6 21.3
05:00 1020 30.12 849 25.07 4.3 39.7 42 -7.7 18.2
05:05 1020 30.12 849 25.07 5.2 41.3 38 -8 17.6
05:10 1020 30.12 849 25.07 5.4 41.8 37 -8 17.6
05:15 1020 30.12 849 25.07 5.4 41.7 36 -8.4 16.9
05:20 1020 30.12 849 25.07 5.5 41.8 36 -8.5 16.7
05:25 1020 30.12 849 25.07 5.4 41.8 38 -7.8 17.9
05:30 1020 30.12 849 25.07 5.3 41.5 38 -7.8 18
05:35 1020 30.12 849 25.07 5.4 41.8 39 -7.5 18.5
05:40 1020 30.12 849 25.07 5.3 41.6 40 -7.2 19.1
05:45 1020 30.12 849 25.07 5.4 41.7 40 -7 19.4
05:50 1020 30.12 849 25.07 5.4 41.7 40 -7.2 19.1
05:55 1020 30.12 849 25.07 5.6 42.1 37 -7.8 17.9
06:00 1020 30.12 849 25.07 5.8 42.4 39 -7.2 19.1
06:05 1020 30.12 849 25.07 5.5 41.8 41 -6.8 19.8
06:10 1020 30.12 849 25.07 5.1 41.2 43 -6.4 20.5
06:15 1020 30.12 849 25.07 4.8 40.6 42 -6.9 19.5
06:20 1020 30.12 849 25.07 5.1 41.1 41 -7 19.4
06:25 1020 30.12 849 25.07 5.3 41.6 38 -7.9 17.8
06:30 1020 30.12 849 25.07 5.7 42.3 39 -7 19.4
06:35 1020 30.12 849 25.07 5.4 41.8 41 -6.6 20.1
06:40 1020 30.12 849 25.07 5.1 41.2 42 -6.7 19.9
06:45 1020 30.12 849 25.07 5.2 41.4 42 -6.8 19.8
06:50 1020 30.12 849 25.07 5.2 41.3 42 -6.6 20.2
06:55 1020 30.12 849 25.07 5 41 43 -6.5 20.3
07:00 1020 30.12 849 25.07 4.7 40.5 44 -6.4 20.5
07:05 1020 30.12 849 25.07 4.6 40.2 47 -5.9 21.4
07:10 1020 30.12 849 25.07 4.3 39.8 47 -5.9 21.4
07:15 1020 30.12 849 25.07 4.1 39.5 46 -6.6 20.2
07:20 1020 30.12 849 25.07 4.5 40.1 47 -5.9 21.5
07:25 1020 30.12 849 25.07 4.6 40.3 45 -6.4 20.5
07:30 1020 30.12 849 25.07 4.7 40.4 45 -6.3 20.6
07:35 1020 30.12 849 25.07 4.8 40.6 44 -6.6 20.1
07:40 1020 30.12 849 25.07 4.8 40.7 45 -6 21.2
07:45 1020 30.12 849 25.07 4.8 40.7 47 -5.4 22.2
07:50 1020 30.12 849 25.07 4.2 39.6 49 -5.4 22.2
07:55 1020 30.12 849 25.07 3.9 38.9 51 -5.2 22.6
08:00 1020 30.12 849 25.07 3.6 38.5 51 -5.6 21.9
08:05 1020 30.12 849 25.07 3.8 38.8 51 -5.5 22.1
08:10 1020 30.12 849 25.07 3.9 39 50 -5.7 21.8
08:15 1020 30.12 849 25.07 4.1 39.4 49 -5.8 21.6
08:20 1020 30.12 849 25.07 4.3 39.7 47 -5.9 21.4
08:25 1020 30.12 849 25.07 4.3 39.8 47 -6.1 21
08:30 1020 30.12 849 25.07 4.5 40 47 -5.8 21.5
08:35 1020 30.12 849 25.07 4.2 39.6 49 -5.6 21.9
08:40 1020 30.12 849 25.07 3.7 38.7 49 -6 21.2
08:45 1020 30.12 849 25.07 3.8 38.8 48 -6.1 21
08:50 1020 30.12 849 25.07 3.8 38.9 49 -5.9 21.3
08:55 1020 30.12 849 25.07 3.9 38.9 48 -6.2 20.8
09:00 1020 30.12 849 25.07 3.9 39.1 45 -7 19.5
09:05 1020 30.12 849 25.07 4.1 39.4 45 -6.9 19.7
09:10 1020 30.12 849 25.07 4.1 39.5 44 -7.2 19.1
09:15 1020 30.12 849 25.07 4.3 39.7 43 -7.1 19.2
09:20 1020 30.12 849 25.07 4.3 39.8 43 -7.2 19.1
09:25 1020 30.12 849 25.07 4.3 39.8 47 -6 21.2
09:30 1020 30.12 849 25.07 3.8 38.9 51 -5.5 22.1
09:35 1020 30.12 849 25.07 3.9 38.9 51 -5.5 22.2
09:40 1020 30.12 849 25.07 3.9 39 50 -5.5 22.1
09:45 1020 30.12 849 25.07 3.9 39 51 -5.4 22.3
09:50 1020 30.12 849 25.07 4 39.3 47 -6.1 21
09:55 1020 30.12 849 25.07 4.4 39.9 50 -5.3 22.5
10:00 1020 30.12 849 25.07 4.2 39.5 51 -5 23
10:05 1020 30.12 849 25.07 4 39.1 50 -5.5 22.1
10:10 1020 30.12 849 25.07 4.4 39.9 47 -5.8 21.5
10:15 1020 30.12 849 25.07 4.8 40.7 47 -5.6 21.9
10:20 1020 30.12 849 25.07 5 41 47 -5.5 22.1
10:25 1020 30.12 849 25.07 5.2 41.3 45 -5.7 21.7
10:30 1020 30.12 849 25.07 5.6 42 43 -6.2 20.9
10:35 1020 30.12 849 25.07 6.6 43.8 40 -6.2 20.8
10:40 1020 30.12 849 25.07 7.1 44.8 39 -5.9 21.4
10:45 1020 30.12 849 25.07 7.5 45.4 38 -6.1 21
10:50 1020 30.12 849 25.07 7.5 45.5 37 -6.1 21
10:55 1020 30.12 849 25.07 7.4 45.3 37 -6.3 20.7
11:00 1020 30.12 849 25.07 7.4 45.3 36 -6.7 20
11:05 1020 30.12 849 25.07 7.3 45.1 36 -6.7 19.9
11:10 1020 30.12 849 25.07 7.3 45.1 38 -6.1 21
11:15 1020 30.12 849 25.07 7.1 44.7 39 -5.9 21.4
11:20 1020 30.12 849 25.07 7.1 44.7 42 -5.1 22.8
11:25 1020 30.12 849 25.07 7.2 45 39 -5.7 21.8
11:30 1020 30.12 849 25.07 8 46.3 35 -6.6 20.1
11:35 1020 30.12 849 25.07 8.1 46.6 35 -6.5 20.3
11:40 1020 30.12 849 25.07 8 46.4 34 -6.7 19.9
11:45 1020 30.12 850 25.1 8.5 47.3 33 -6.7 20
11:50 1020 30.12 850 25.1 8.5 47.4 34 -6.6 20.2
11:55 1021 30.15 850 25.1 8.4 47.2 32 -7.3 18.8
12:00 1020 30.12 850 25.1 8.1 46.6 33 -7.1 19.2
12:05 1020 30.12 850 25.1 8.2 46.8 34 -6.8 19.8
12:10 1020 30.12 850 25.1 8.4 47.1 33 -6.9 19.6
12:15 1020 30.12 850 25.1 8.5 47.2 33 -7.1 19.3
12:20 1021 30.15 850 25.1 8.4 47.2 32 -7.2 19
12:25 1021 30.15 850 25.1 8.7 47.7 32 -7.1 19.1
12:30 1021 30.15 850 25.1 9.1 48.5 31 -7.2 19.1
12:35 1021 30.15 850 25.1 10 50 29 -7.1 19.3
12:40 1021 30.15 850 25.1 10.1 50.1 30 -6.8 19.8
12:45 1021 30.15 850 25.1 10 50 28 -7.5 18.5
12:50 1021 30.15 850 25.1 10.9 51.7 27 -7.3 18.8
12:55 1021 30.15 850 25.1 11.6 52.8 25 -7.7 18.1
13:00 1021 30.15 850 25.1 11.4 52.6 25 -7.7 18.2
13:05 1020 30.12 850 25.1 11.7 53 25 -7.6 18.4
13:10 1020 30.12 850 25.1 11.8 53.3 24 -7.9 17.7
13:15 1020 30.12 849 25.07 12.4 54.4 24 -7.8 18
13:20 1020 30.12 849 25.07 13 55.4 22 -8.1 17.5
13:25 1020 30.12 849 25.07 12.8 55 23 -7.6 18.3
13:30 1020 30.12 849 25.07 12.9 55.1 23 -7.9 17.7
13:35 1020 30.12 849 25.07 13.3 55.9 22 -7.9 17.8
13:40 1020 30.12 849 25.07 13.8 56.8 22 -7.6 18.3
13:45 1020 30.12 849 25.07 13.2 55.8 23 -7.6 18.4
13:50 1020 30.12 849 25.07 13.7 56.7 21 -8.1 17.4
13:55 1020 30.12 849 25.07 14.1 57.3 22 -7.4 18.7
14:00 1020 30.12 849 25.07 13.9 57 21 -8 17.7
14:05 1020 30.12 849 25.07 14.3 57.7 21 -8 17.7
14:10 1020 30.12 849 25.07 14.7 58.4 20 -7.7 18.1
14:15 1019 30.09 849 25.07 14.3 57.7 21 -7.7 18.1
14:20 1019 30.09 849 25.07 14.5 58 20 -7.9 17.8
14:25 1019 30.09 848 25.04 14.8 58.6 20 -8.2 17.3
14:30 1019 30.09 848 25.04 14.8 58.6 19 -8.7 16.3
14:35 1019 30.09 848 25.04 14.4 57.9 20 -8.5 16.7
14:40 1019 30.09 848 25.04 14.7 58.4 20 -8.2 17.3
14:45 1019 30.09 848 25.04 15 59 20 -7.6 18.3
14:50 1019 30.09 848 25.04 15.2 59.3 20 -7.3 18.8
14:55 1019 30.09 848 25.04 14.9 58.8 20 -7.8 18
15:00 1019 30.09 848 25.04 14.5 58 21 -7.8 18
15:05 1019 30.09 848 25.04 14.6 58.2 20 -8.1 17.5
15:10 1019 30.09 848 25.04 14.3 57.8 22 -7.3 18.9
15:15 1019 30.09 848 25.04 13.9 57.1 21 -8.2 17.3
15:20 1019 30.09 848 25.04 14.3 57.7 21 -8 17.6
15:25 1019 30.09 848 25.04 14.2 57.6 21 -7.9 17.8
15:30 1018 30.06 848 25.04 14.4 58 20 -8 17.5
15:35 1018 30.06 848 25.04 14.6 58.3 20 -7.9 17.8
15:40 1018 30.06 848 25.04 14.3 57.7 20 -8.1 17.4
15:45 1018 30.06 848 25.04 14.3 57.8 21 -7.5 18.5
15:50 1018 30.06 847 25.01 13.7 56.7 22 -7.8 17.9
15:55 1018 30.06 847 25.01 13.5 56.4 21 -8.6 16.4
16:00 1018 30.06 847 25.01 14.5 58 20 -8.4 16.8
16:05 1018 30.06 847 25.01 15.1 59.1 19 -8.6 16.6
16:10 1018 30.06 847 25.01 15.4 59.8 17 -9.3 15.2
16:15 1018 30.06 847 25.01 15.5 59.9 19 -8.2 17.3
16:20 1018 30.06 847 25.01 15.3 59.5 16 -10.7 12.8
16:25 1018 30.06 847 25.01 15.6 60 16 -10.5 13.1
16:30 1018 30.06 847 25.01 15.9 60.6 16 -10.1 13.8
16:35 1018 30.06 847 25.01 15.7 60.2 16 -10 14
16:40 1018 30.06 847 25.01 15.6 60 17 -9.7 14.5
16:45 1018 30.06 847 25.01 15.4 59.7 17 -9.6 14.7
16:50 1018 30.06 847 25.01 15.3 59.6 17 -9.2 15.4
16:55 1018 30.06 847 25.01 15 59 18 -9 15.7
17:00 1018 30.06 847 25.01 14.9 58.8 18 -8.9 15.9
17:05 1018 30.06 847 25.01 14.8 58.7 18 -9.1 15.7
17:10 1018 30.06 847 25.01 14.7 58.5 19 -8.5 16.7
17:15 1018 30.06 847 25.01 14.2 57.6 20 -8.5 16.8
17:20 1018 30.06 847 25.01 14.1 57.3 20 -8.4 16.8
17:25 1018 30.06 847 25.01 13.9 56.9 21 -8 17.7
17:30 1018 30.06 847 25.01 13.5 56.3 22 -7.9 17.7
17:35 1018 30.06 847 25.01 13.5 56.3 21 -8.5 16.7
17:40 1018 30.06 847 25.01 13.6 56.4 21 -8.6 16.5
17:45 1018 30.06 847 25.01 13.6 56.4 20 -9 15.8
17:50 1018 30.06 847 25.01 13.9 57 20 -8.9 15.9
17:55 1018 30.06 847 25.01 13.8 56.9 20 -8.7 16.4
18:00 1018 30.06 847 25.01 13.7 56.7 21 -8.5 16.8
18:05 1018 30.06 847 25.01 13.5 56.3 21 -8.4 16.9
18:10 1018 30.06 847 25.01 13.3 56 22 -8 17.6
18:15 1018 30.06 847 25.01 13.2 55.7 24 -6.9 19.6
18:20 1018 30.06 847 25.01 12.6 54.6 28 -5.5 22.2
18:25 1018 30.06 847 25.01 11.8 53.2 30 -5 23
18:30 1018 30.06 848 25.04 11.2 52.2 33 -4.6 23.7
18:35 1018 30.06 848 25.04 10.7 51.3 34 -4.5 23.9
18:40 1019 30.09 848 25.04 10.5 50.9 35 -4.4 24.1
18:45 1019 30.09 848 25.04 10.3 50.6 36 -4.2 24.5
18:50 1019 30.09 848 25.04 10.1 50.2 37 -4 24.8
18:55 1019 30.09 848 25.04 9.9 49.9 37 -4 24.8
19:00 1019 30.09 848 25.04 9.7 49.5 38 -3.9 25
19:05 1019 30.09 848 25.04 9.6 49.2 38 -3.9 24.9
19:10 1019 30.09 848 25.04 9.4 48.8 39 -4 24.9
19:15 1019 30.09 848 25.04 9.2 48.6 39 -4 24.8
19:20 1019 30.09 848 25.04 9.2 48.5 39 -3.9 25
19:25 1019 30.09 848 25.04 9 48.2 40 -3.9 25
19:30 1019 30.09 849 25.07 8.9 48 41 -3.8 25.2
19:35 1019 30.09 849 25.07 8.8 47.9 40 -4 24.9
19:40 1019 30.09 849 25.07 8.8 47.9 40 -4 24.8
19:45 1020 30.12 849 25.07 8.8 47.8 40 -3.9 24.9
19:50 1020 30.12 849 25.07 8.7 47.6 41 -4 24.9
19:55 1020 30.12 849 25.07 8.6 47.5 41 -3.9 25.1
20:00 1020 30.12 849 25.07 8.5 47.3 42 -3.7 25.3
20:05 1020 30.12 849 25.07 8.4 47 43 -3.6 25.6
20:10 1020 30.12 849 25.07 8.3 46.9 43 -3.6 25.4
20:15 1020 30.12 849 25.07 8.2 46.8 43 -3.5 25.7
20:20 1020 30.12 849 25.07 7.5 45.6 49 -2.6 27.4
20:25 1020 30.12 849 25.07 7 44.6 49 -3.1 26.5
20:30 1020 30.12 850 25.1 7 44.6 49 -3 26.6
20:35 1020 30.12 850 25.1 7 44.6 48 -3.1 26.4
20:40 1020 30.12 850 25.1 7.2 45 48 -3.1 26.5
20:45 1021 30.15 850 25.1 7.4 45.3 47 -3.1 26.4
20:50 1021 30.15 850 25.1 7.5 45.5 47 -3.1 26.4
20:55 1021 30.15 850 25.1 7.6 45.6 47 -3 26.5
21:00 1021 30.15 850 25.1 7.6 45.7 47 -3 26.6
21:05 1021 30.15 850 25.1 7.6 45.8 47 -3 26.6
21:10 1021 30.15 850 25.1 7.6 45.7 47 -3 26.7
21:15 1021 30.15 850 25.1 7.6 45.6 47 -2.9 26.8
21:20 1021 30.15 850 25.1 7.6 45.6 47 -2.9 26.7
21:25 1021 30.15 850 25.1 7.6 45.6 47 -3.1 26.5
21:30 1021 30.15 850 25.1 7.6 45.6 47 -3 26.5
21:35 1021 30.15 850 25.1 7.5 45.6 47 -3.1 26.5
21:40 1021 30.15 850 25.1 7.5 45.5 47 -3.1 26.5
21:45 1021 30.15 850 25.1 7.5 45.4 47 -3.1 26.4
21:50 1021 30.15 850 25.1 7.4 45.3 48 -2.9 26.8
21:55 1021 30.15 850 25.1 7.3 45.2 48 -2.8 26.9
22:00 1021 30.15 850 25.1 7.2 44.9 50 -2.6 27.3
22:05 1021 30.15 850 25.1 6.9 44.4 52 -2.3 27.9
22:10 1021 30.15 850 25.1 6.7 44.1 52 -2.4 27.8
22:15 1021 30.15 850 25.1 6.5 43.8 54 -2.2 28.1
22:20 1021 30.15 850 25.1 6.6 43.8 53 -2.2 28
22:25 1021 30.15 850 25.1 6.5 43.7 54 -2.2 28.1
22:30 1021 30.15 850 25.1 6.4 43.4 54 -2.3 27.9
22:35 1021 30.15 850 25.1 6.2 43.2 55 -2.1 28.2
22:40 1021 30.15 850 25.1 5.9 42.7 56 -2.1 28.3
22:45 1021 30.15 850 25.1 5.7 42.2 59 -1.7 28.9
22:50 1021 30.15 850 25.1 5.4 41.8 61 -1.4 29.4
22:55 1021 30.15 850 25.1 5.1 41.2 66 -0.6 30.9
23:00 1021 30.15 850 25.1 4.7 40.4 71 -0.1 31.8
23:05 1021 30.15 850 25.1 4.4 39.9 72 -0.2 31.7
23:10 1021 30.15 850 25.1 4.5 40 70 -0.5 31.1
23:15 1021 30.15 850 25.1 4.5 40 71 -0.3 31.4
23:20 1021 30.15 850 25.1 4.3 39.8 72 -0.3 31.4
23:25 1021 30.15 850 25.1 4.3 39.7 72 -0.3 31.4
23:30 1021 30.15 850 25.1 4.3 39.7 72 -0.3 31.5
23:35 1021 30.15 850 25.1 4.2 39.6 72 -0.3 31.4
23:40 1021 30.15 850 25.1 4.3 39.8 69 -0.9 30.4
23:45 1021 30.15 850 25.1 4.6 40.3 66 -1.1 30
23:50 1021 30.15 850 25.1 4.8 40.6 67 -0.9 30.4
23:55 1021 30.15 850 25.1 4.8 40.6 67 -0.8 30.6
24:00 1021 30.15 850 25.1 4.6 40.3 69 -0.7 30.8